sensor_id;sensor_type;location;lat;lon;timestamp;pressure;altitude;pressure_sealevel;temperature;humidity
70833;BME280;58452;59.418;17.962;2023-03-20T00:01:39;101021.78;;;3.23;86.82
70833;BME280;58452;59.418;17.962;2023-03-20T00:04:05;101009.84;;;3.23;86.78
70833;BME280;58452;59.418;17.962;2023-03-20T00:06:31;101013.03;;;3.27;87.10
70833;BME280;58452;59.418;17.962;2023-03-20T00:08:56;101004.47;;;3.28;87.44
70833;BME280;58452;59.418;17.962;2023-03-20T00:11:33;101011.50;;;3.38;87.35
70833;BME280;58452;59.418;17.962;2023-03-20T00:14:06;101002.22;;;3.37;86.94
70833;BME280;58452;59.418;17.962;2023-03-20T00:16:37;100999.00;;;3.34;87.06
70833;BME280;58452;59.418;17.962;2023-03-20T00:19:04;101000.28;;;3.27;87.03
70833;BME280;58452;59.418;17.962;2023-03-20T00:21:31;101007.41;;;3.36;86.76
70833;BME280;58452;59.418;17.962;2023-03-20T00:23:57;101007.22;;;3.39;86.98
70833;BME280;58452;59.418;17.962;2023-03-20T00:26:26;101009.16;;;3.06;88.06
70833;BME280;58452;59.418;17.962;2023-03-20T00:28:52;101007.19;;;3.11;88.20
70833;BME280;58452;59.418;17.962;2023-03-20T00:33:46;100995.16;;;3.13;88.05
70833;BME280;58452;59.418;17.962;2023-03-20T00:36:11;100990.44;;;3.21;87.86
70833;BME280;58452;59.418;17.962;2023-03-20T00:38:37;100984.25;;;3.25;88.00
70833;BME280;58452;59.418;17.962;2023-03-20T00:41:14;100982.16;;;3.17;87.48
70833;BME280;58452;59.418;17.962;2023-03-20T00:43:45;100980.25;;;3.21;88.20
70833;BME280;58452;59.418;17.962;2023-03-20T00:46:13;100971.88;;;3.33;87.51
70833;BME280;58452;59.418;17.962;2023-03-20T00:48:40;100958.75;;;3.25;88.08
70833;BME280;58452;59.418;17.962;2023-03-20T00:51:06;100952.31;;;3.33;87.88
70833;BME280;58452;59.418;17.962;2023-03-20T00:53:32;100949.81;;;3.32;87.73
70833;BME280;58452;59.418;17.962;2023-03-20T00:55:57;100947.00;;;3.36;87.69
70833;BME280;58452;59.418;17.962;2023-03-20T00:58:23;100939.88;;;3.41;87.22
70833;BME280;58452;59.418;17.962;2023-03-20T01:00:49;100939.25;;;3.38;87.24
70833;BME280;58452;59.418;17.962;2023-03-20T01:03:17;100927.63;;;3.48;87.02
70833;BME280;58452;59.418;17.962;2023-03-20T01:05:44;100928.53;;;3.47;87.73
70833;BME280;58452;59.418;17.962;2023-03-20T01:08:18;100929.97;;;3.51;87.39
70833;BME280;58452;59.418;17.962;2023-03-20T01:10:45;100930.31;;;3.45;87.58
70833;BME280;58452;59.418;17.962;2023-03-20T01:13:25;100920.31;;;3.42;87.59
70833;BME280;58452;59.418;17.962;2023-03-20T01:15:54;100909.38;;;3.54;88.02
70833;BME280;58452;59.418;17.962;2023-03-20T01:18:22;100904.09;;;3.57;87.61
70833;BME280;58452;59.418;17.962;2023-03-20T01:20:48;100901.34;;;3.60;87.64
70833;BME280;58452;59.418;17.962;2023-03-20T01:23:14;100898.44;;;3.66;87.53
70833;BME280;58452;59.418;17.962;2023-03-20T01:25:40;100897.69;;;3.64;87.27
70833;BME280;58452;59.418;17.962;2023-03-20T01:30:43;100902.63;;;3.53;87.80
70833;BME280;58452;59.418;17.962;2023-03-20T01:33:20;100889.97;;;3.52;87.96
70833;BME280;58452;59.418;17.962;2023-03-20T01:35:47;100901.16;;;3.49;88.43
70833;BME280;58452;59.418;17.962;2023-03-20T01:38:20;100884.69;;;3.55;88.45
70833;BME280;58452;59.418;17.962;2023-03-20T01:40:52;100881.84;;;3.59;88.13
70833;BME280;58452;59.418;17.962;2023-03-20T01:43:20;100869.81;;;3.61;88.37
70833;BME280;58452;59.418;17.962;2023-03-20T01:45:53;100869.44;;;3.67;88.07
70833;BME280;58452;59.418;17.962;2023-03-20T01:48:20;100861.09;;;3.51;88.37
70833;BME280;58452;59.418;17.962;2023-03-20T01:50:49;100862.91;;;3.35;88.74
70833;BME280;58452;59.418;17.962;2023-03-20T01:53:18;100863.00;;;3.48;89.08
70833;BME280;58452;59.418;17.962;2023-03-20T01:55:45;100858.16;;;3.57;89.19
70833;BME280;58452;59.418;17.962;2023-03-20T01:58:38;100846.47;;;3.67;88.66
70833;BME280;58452;59.418;17.962;2023-03-20T02:01:07;100846.56;;;3.66;88.58
70833;BME280;58452;59.418;17.962;2023-03-20T02:03:33;100845.34;;;3.71;88.09
70833;BME280;58452;59.418;17.962;2023-03-20T02:05:59;100851.91;;;3.75;88.68
70833;BME280;58452;59.418;17.962;2023-03-20T02:08:28;100852.53;;;3.52;89.51
70833;BME280;58452;59.418;17.962;2023-03-20T02:10:56;100846.28;;;3.56;89.47
70833;BME280;58452;59.418;17.962;2023-03-20T02:13:25;100838.28;;;3.62;89.27
70833;BME280;58452;59.418;17.962;2023-03-20T02:16:04;100847.19;;;3.69;89.47
70833;BME280;58452;59.418;17.962;2023-03-20T02:18:32;100840.25;;;3.71;89.27
70833;BME280;58452;59.418;17.962;2023-03-20T02:40:29;100801.41;;;3.80;88.92
70833;BME280;58452;59.418;17.962;2023-03-20T02:45:45;100794.31;;;3.71;88.91
70833;BME280;58452;59.418;17.962;2023-03-20T02:57:07;100773.31;;;3.80;89.13
70833;BME280;58452;59.418;17.962;2023-03-20T02:59:45;100773.13;;;3.83;89.15
70833;BME280;58452;59.418;17.962;2023-03-20T03:02:19;100764.75;;;3.81;89.76
70833;BME280;58452;59.418;17.962;2023-03-20T03:04:51;100770.38;;;3.86;89.70
70833;BME280;58452;59.418;17.962;2023-03-20T03:07:22;100764.34;;;3.87;89.28
70833;BME280;58452;59.418;17.962;2023-03-20T03:09:53;100753.13;;;3.90;88.68
70833;BME280;58452;59.418;17.962;2023-03-20T03:12:29;100755.19;;;3.98;88.93
70833;BME280;58452;59.418;17.962;2023-03-20T03:14:59;100751.47;;;3.89;88.91
70833;BME280;58452;59.418;17.962;2023-03-20T03:17:29;100756.97;;;3.83;88.34
70833;BME280;58452;59.418;17.962;2023-03-20T03:19:59;100751.38;;;3.78;89.07
70833;BME280;58452;59.418;17.962;2023-03-20T03:22:26;100743.94;;;3.87;89.58
70833;BME280;58452;59.418;17.962;2023-03-20T03:24:53;100732.06;;;3.86;88.84
70833;BME280;58452;59.418;17.962;2023-03-20T03:29:49;100736.47;;;3.97;88.72
70833;BME280;58452;59.418;17.962;2023-03-20T03:32:36;100742.94;;;4.03;88.63
70833;BME280;58452;59.418;17.962;2023-03-20T03:35:06;100732.19;;;3.98;88.28
70833;BME280;58452;59.418;17.962;2023-03-20T03:40:16;100734.13;;;3.81;89.49
70833;BME280;58452;59.418;17.962;2023-03-20T03:42:54;100716.75;;;3.86;89.04
70833;BME280;58452;59.418;17.962;2023-03-20T03:45:31;100716.13;;;3.83;89.08
70833;BME280;58452;59.418;17.962;2023-03-20T03:48:06;100723.59;;;3.73;90.07
70833;BME280;58452;59.418;17.962;2023-03-20T03:53:19;100707.25;;;3.76;90.29
70833;BME280;58452;59.418;17.962;2023-03-20T03:55:50;100685.63;;;3.81;90.09
70833;BME280;58452;59.418;17.962;2023-03-20T03:58:20;100677.25;;;3.92;89.95
70833;BME280;58452;59.418;17.962;2023-03-20T04:00:48;100672.25;;;3.90;89.61
70833;BME280;58452;59.418;17.962;2023-03-20T04:03:18;100674.31;;;3.98;89.52
70833;BME280;58452;59.418;17.962;2023-03-20T04:05:46;100684.00;;;4.06;88.74
70833;BME280;58452;59.418;17.962;2023-03-20T04:08:13;100687.78;;;4.00;88.79
70833;BME280;58452;59.418;17.962;2023-03-20T04:10:39;100683.28;;;4.04;89.18
70833;BME280;58452;59.418;17.962;2023-03-20T04:13:04;100672.88;;;4.07;89.10
70833;BME280;58452;59.418;17.962;2023-03-20T04:15:30;100678.59;;;4.10;89.04
70833;BME280;58452;59.418;17.962;2023-03-20T04:17:55;100667.78;;;4.07;88.85
70833;BME280;58452;59.418;17.962;2023-03-20T04:20:21;100662.47;;;4.10;89.37
70833;BME280;58452;59.418;17.962;2023-03-20T04:22:47;100659.09;;;4.09;88.64
70833;BME280;58452;59.418;17.962;2023-03-20T04:25:21;100644.78;;;4.07;88.83
70833;BME280;58452;59.418;17.962;2023-03-20T04:27:47;100642.72;;;4.12;88.93
70833;BME280;58452;59.418;17.962;2023-03-20T04:30:13;100640.59;;;4.06;88.74
70833;BME280;58452;59.418;17.962;2023-03-20T04:32:38;100632.22;;;4.04;89.17
70833;BME280;58452;59.418;17.962;2023-03-20T04:35:04;100633.25;;;4.14;89.21
70833;BME280;58452;59.418;17.962;2023-03-20T04:37:30;100627.72;;;4.20;89.01
70833;BME280;58452;59.418;17.962;2023-03-20T04:39:56;100634.06;;;4.02;90.17
70833;BME280;58452;59.418;17.962;2023-03-20T04:42:21;100633.63;;;4.08;89.98
70833;BME280;58452;59.418;17.962;2023-03-20T04:44:47;100636.28;;;3.93;91.01
70833;BME280;58452;59.418;17.962;2023-03-20T04:47:12;100631.81;;;3.97;90.99
70833;BME280;58452;59.418;17.962;2023-03-20T04:49:37;100624.06;;;3.99;90.66
70833;BME280;58452;59.418;17.962;2023-03-20T04:52:03;100622.63;;;4.07;90.73
70833;BME280;58452;59.418;17.962;2023-03-20T04:54:28;100616.38;;;4.11;90.57
70833;BME280;58452;59.418;17.962;2023-03-20T04:56:54;100616.19;;;4.14;91.02
70833;BME280;58452;59.418;17.962;2023-03-20T04:59:19;100611.00;;;4.03;90.63
70833;BME280;58452;59.418;17.962;2023-03-20T05:01:44;100604.03;;;4.05;91.09
70833;BME280;58452;59.418;17.962;2023-03-20T05:04:10;100605.16;;;4.14;91.02
70833;BME280;58452;59.418;17.962;2023-03-20T05:06:36;100600.53;;;4.19;91.40
70833;BME280;58452;59.418;17.962;2023-03-20T05:09:01;100600.03;;;4.14;90.61
70833;BME280;58452;59.418;17.962;2023-03-20T05:11:27;100607.59;;;3.90;91.81
70833;BME280;58452;59.418;17.962;2023-03-20T05:13:53;100610.47;;;3.85;93.27
70833;BME280;58452;59.418;17.962;2023-03-20T05:16:19;100609.66;;;3.98;92.90
70833;BME280;58452;59.418;17.962;2023-03-20T05:18:44;100602.00;;;3.98;92.80
70833;BME280;58452;59.418;17.962;2023-03-20T05:21:10;100603.81;;;4.08;92.65
70833;BME280;58452;59.418;17.962;2023-03-20T05:23:35;100606.28;;;4.10;93.19
70833;BME280;58452;59.418;17.962;2023-03-20T05:26:01;100596.66;;;4.13;92.39
70833;BME280;58452;59.418;17.962;2023-03-20T05:28:27;100589.31;;;4.21;92.93
70833;BME280;58452;59.418;17.962;2023-03-20T05:30:52;100591.53;;;4.26;92.72
70833;BME280;58452;59.418;17.962;2023-03-20T05:33:18;100589.41;;;4.20;92.72
70833;BME280;58452;59.418;17.962;2023-03-20T05:35:43;100579.09;;;4.09;92.88
70833;BME280;58452;59.418;17.962;2023-03-20T05:38:09;100583.38;;;4.21;92.67
70833;BME280;58452;59.418;17.962;2023-03-20T05:40:35;100584.81;;;4.25;93.37
70833;BME280;58452;59.418;17.962;2023-03-20T05:43:00;100580.63;;;4.24;93.34
70833;BME280;58452;59.418;17.962;2023-03-20T05:45:26;100573.25;;;4.32;93.29
70833;BME280;58452;59.418;17.962;2023-03-20T05:47:51;100579.28;;;4.31;93.65
70833;BME280;58452;59.418;17.962;2023-03-20T05:50:17;100580.44;;;4.14;93.65
70833;BME280;58452;59.418;17.962;2023-03-20T05:52:45;100577.53;;;4.19;94.16
70833;BME280;58452;59.418;17.962;2023-03-20T05:55:11;100576.09;;;4.27;94.36
70833;BME280;58452;59.418;17.962;2023-03-20T05:57:37;100572.44;;;4.31;93.91
70833;BME280;58452;59.418;17.962;2023-03-20T06:00:02;100574.38;;;4.28;94.12
70833;BME280;58452;59.418;17.962;2023-03-20T06:02:29;100575.59;;;4.35;94.29
70833;BME280;58452;59.418;17.962;2023-03-20T06:04:55;100564.22;;;4.39;93.84
70833;BME280;58452;59.418;17.962;2023-03-20T06:07:20;100564.44;;;4.36;93.84
70833;BME280;58452;59.418;17.962;2023-03-20T06:09:46;100567.31;;;4.31;93.74
70833;BME280;58452;59.418;17.962;2023-03-20T06:12:11;100572.13;;;4.36;94.57
70833;BME280;58452;59.418;17.962;2023-03-20T06:14:37;100561.03;;;4.48;93.82
70833;BME280;58452;59.418;17.962;2023-03-20T06:17:02;100555.91;;;4.48;93.60
70833;BME280;58452;59.418;17.962;2023-03-20T06:19:28;100562.50;;;4.39;93.10
70833;BME280;58452;59.418;17.962;2023-03-20T06:21:53;100562.50;;;4.39;94.34
70833;BME280;58452;59.418;17.962;2023-03-20T06:24:19;100567.09;;;4.47;93.38
70833;BME280;58452;59.418;17.962;2023-03-20T06:26:44;100556.41;;;4.53;94.30
70833;BME280;58452;59.418;17.962;2023-03-20T06:29:10;100555.22;;;4.46;93.30
70833;BME280;58452;59.418;17.962;2023-03-20T06:31:35;100558.00;;;4.43;94.19
70833;BME280;58452;59.418;17.962;2023-03-20T06:34:01;100563.09;;;4.43;94.75
70833;BME280;58452;59.418;17.962;2023-03-20T06:36:26;100556.34;;;4.42;94.55
70833;BME280;58452;59.418;17.962;2023-03-20T06:38:52;100568.00;;;4.46;94.94
70833;BME280;58452;59.418;17.962;2023-03-20T06:41:17;100566.88;;;4.50;94.88
70833;BME280;58452;59.418;17.962;2023-03-20T06:43:43;100566.41;;;4.56;95.01
70833;BME280;58452;59.418;17.962;2023-03-20T06:46:08;100572.13;;;4.36;95.05
70833;BME280;58452;59.418;17.962;2023-03-20T06:51:09;100555.28;;;4.57;95.10
70833;BME280;58452;59.418;17.962;2023-03-20T06:53:34;100555.06;;;4.60;95.25
70833;BME280;58452;59.418;17.962;2023-03-20T06:56:00;100561.97;;;4.71;95.14
70833;BME280;58452;59.418;17.962;2023-03-20T06:58:26;100551.94;;;4.80;94.83
70833;BME280;58452;59.418;17.962;2023-03-20T07:00:51;100552.41;;;4.85;94.64
70833;BME280;58452;59.418;17.962;2023-03-20T07:03:18;100553.16;;;4.75;95.11
70833;BME280;58452;59.418;17.962;2023-03-20T07:05:44;100546.00;;;4.80;94.70
70833;BME280;58452;59.418;17.962;2023-03-20T07:08:10;100547.00;;;4.77;94.63
70833;BME280;58452;59.418;17.962;2023-03-20T07:10:35;100547.22;;;4.74;94.96
70833;BME280;58452;59.418;17.962;2023-03-20T07:13:02;100542.28;;;4.84;94.99
70833;BME280;58452;59.418;17.962;2023-03-20T07:15:29;100546.38;;;4.86;94.80
70833;BME280;58452;59.418;17.962;2023-03-20T07:17:54;100545.91;;;4.92;94.91
70833;BME280;58452;59.418;17.962;2023-03-20T07:20:20;100538.19;;;4.81;94.96
70833;BME280;58452;59.418;17.962;2023-03-20T07:22:47;100539.03;;;4.82;95.17
70833;BME280;58452;59.418;17.962;2023-03-20T07:25:13;100541.75;;;4.91;95.02
70833;BME280;58452;59.418;17.962;2023-03-20T07:27:39;100537.78;;;4.87;95.13
70833;BME280;58452;59.418;17.962;2023-03-20T07:30:06;100533.63;;;4.98;94.71
70833;BME280;58452;59.418;17.962;2023-03-20T07:32:31;100528.28;;;5.01;94.72
70833;BME280;58452;59.418;17.962;2023-03-20T07:34:57;100521.47;;;5.12;95.22
70833;BME280;58452;59.418;17.962;2023-03-20T07:37:23;100526.72;;;5.22;94.35
70833;BME280;58452;59.418;17.962;2023-03-20T07:39:48;100529.75;;;5.27;94.50
70833;BME280;58452;59.418;17.962;2023-03-20T07:42:14;100530.59;;;5.27;94.32
70833;BME280;58452;59.418;17.962;2023-03-20T07:44:40;100527.22;;;5.38;94.17
70833;BME280;58452;59.418;17.962;2023-03-20T07:47:06;100524.22;;;5.44;94.33
70833;BME280;58452;59.418;17.962;2023-03-20T07:49:32;100520.25;;;5.40;93.74
70833;BME280;58452;59.418;17.962;2023-03-20T07:51:57;100519.81;;;5.46;94.43
70833;BME280;58452;59.418;17.962;2023-03-20T07:54:23;100514.31;;;5.39;94.22
70833;BME280;58452;59.418;17.962;2023-03-20T07:56:48;100512.69;;;5.38;94.77
70833;BME280;58452;59.418;17.962;2023-03-20T07:59:15;100519.06;;;5.33;95.07
70833;BME280;58452;59.418;17.962;2023-03-20T08:01:41;100509.97;;;5.18;96.80
70833;BME280;58452;59.418;17.962;2023-03-20T08:04:06;100509.31;;;5.38;96.96
70833;BME280;58452;59.418;17.962;2023-03-20T08:06:32;100505.69;;;5.29;96.79
70833;BME280;58452;59.418;17.962;2023-03-20T08:08:57;100503.03;;;5.42;97.14
70833;BME280;58452;59.418;17.962;2023-03-20T08:11:23;100500.00;;;5.37;96.88
70833;BME280;58452;59.418;17.962;2023-03-20T08:13:48;100503.97;;;5.41;96.73
70833;BME280;58452;59.418;17.962;2023-03-20T08:16:14;100499.09;;;5.49;96.83
70833;BME280;58452;59.418;17.962;2023-03-20T08:18:39;100509.19;;;5.51;96.62
70833;BME280;58452;59.418;17.962;2023-03-20T08:21:05;100485.59;;;5.58;96.31
70833;BME280;58452;59.418;17.962;2023-03-20T08:23:30;100493.50;;;5.55;96.26
70833;BME280;58452;59.418;17.962;2023-03-20T08:25:56;100475.00;;;5.52;95.81
70833;BME280;58452;59.418;17.962;2023-03-20T08:28:22;100485.97;;;5.54;95.97
70833;BME280;58452;59.418;17.962;2023-03-20T08:30:48;100491.44;;;5.60;95.91
70833;BME280;58452;59.418;17.962;2023-03-20T08:33:15;100479.06;;;5.65;95.86
70833;BME280;58452;59.418;17.962;2023-03-20T08:35:41;100470.47;;;5.66;95.52
70833;BME280;58452;59.418;17.962;2023-03-20T08:38:16;100481.88;;;5.73;95.91
70833;BME280;58452;59.418;17.962;2023-03-20T08:40:42;100480.03;;;5.75;95.77
70833;BME280;58452;59.418;17.962;2023-03-20T08:43:07;100484.00;;;5.79;95.25
70833;BME280;58452;59.418;17.962;2023-03-20T08:45:33;100475.94;;;5.84;96.03
70833;BME280;58452;59.418;17.962;2023-03-20T08:47:59;100467.44;;;5.95;95.38
70833;BME280;58452;59.418;17.962;2023-03-20T08:50:24;100471.75;;;6.05;95.46
70833;BME280;58452;59.418;17.962;2023-03-20T08:52:50;100463.16;;;5.95;94.56
70833;BME280;58452;59.418;17.962;2023-03-20T08:55:15;100462.47;;;5.93;95.43
70833;BME280;58452;59.418;17.962;2023-03-20T08:57:41;100462.78;;;6.00;95.24
70833;BME280;58452;59.418;17.962;2023-03-20T09:00:10;100463.72;;;5.99;95.88
70833;BME280;58452;59.418;17.962;2023-03-20T09:02:36;100460.94;;;6.02;96.24
70833;BME280;58452;59.418;17.962;2023-03-20T09:05:02;100462.78;;;6.00;96.29
70833;BME280;58452;59.418;17.962;2023-03-20T09:07:28;100456.75;;;5.89;96.80
70833;BME280;58452;59.418;17.962;2023-03-20T09:09:53;100456.00;;;6.10;96.76
70833;BME280;58452;59.418;17.962;2023-03-20T09:12:18;100450.69;;;6.02;95.94
70833;BME280;58452;59.418;17.962;2023-03-20T09:14:44;100462.31;;;6.06;96.04
70833;BME280;58452;59.418;17.962;2023-03-20T09:17:09;100457.91;;;5.97;96.30
70833;BME280;58452;59.418;17.962;2023-03-20T09:19:35;100457.06;;;6.07;96.04
70833;BME280;58452;59.418;17.962;2023-03-20T09:22:04;100459.03;;;6.15;96.19
70833;BME280;58452;59.418;17.962;2023-03-20T09:24:29;100456.47;;;6.15;96.47
70833;BME280;58452;59.418;17.962;2023-03-20T09:26:55;100456.22;;;6.29;96.19
70833;BME280;58452;59.418;17.962;2023-03-20T09:29:21;100464.47;;;6.32;96.01
70833;BME280;58452;59.418;17.962;2023-03-20T09:31:46;100459.59;;;6.29;94.60
70833;BME280;58452;59.418;17.962;2023-03-20T09:34:12;100456.09;;;6.30;94.87
70833;BME280;58452;59.418;17.962;2023-03-20T09:36:37;100447.69;;;6.28;94.77
70833;BME280;58452;59.418;17.962;2023-03-20T09:39:03;100452.69;;;6.41;94.53
70833;BME280;58452;59.418;17.962;2023-03-20T09:41:28;100448.06;;;6.24;94.79
70833;BME280;58452;59.418;17.962;2023-03-20T09:51:56;100445.50;;;6.24;95.14
70833;BME280;58452;59.418;17.962;2023-03-20T09:54:37;100459.00;;;6.26;95.31
70833;BME280;58452;59.418;17.962;2023-03-20T09:57:05;100451.88;;;6.41;94.86
70833;BME280;58452;59.418;17.962;2023-03-20T09:59:37;100448.94;;;6.45;94.14
70833;BME280;58452;59.418;17.962;2023-03-20T10:02:13;100448.19;;;6.54;93.76
70833;BME280;58452;59.418;17.962;2023-03-20T10:04:41;100445.63;;;6.54;92.73
70833;BME280;58452;59.418;17.962;2023-03-20T10:07:09;100443.28;;;6.62;92.11
70833;BME280;58452;59.418;17.962;2023-03-20T10:09:37;100438.19;;;6.51;91.47
70833;BME280;58452;59.418;17.962;2023-03-20T10:20:32;100447.31;;;6.44;90.45
70833;BME280;58452;59.418;17.962;2023-03-20T10:23:06;100448.47;;;6.40;91.04
70833;BME280;58452;59.418;17.962;2023-03-20T10:25:42;100444.50;;;6.47;90.91
70833;BME280;58452;59.418;17.962;2023-03-20T10:28:16;100450.47;;;6.36;90.65
70833;BME280;58452;59.418;17.962;2023-03-20T10:33:43;100445.34;;;6.36;90.92
70833;BME280;58452;59.418;17.962;2023-03-20T10:41:30;100432.81;;;6.54;90.40
70833;BME280;58452;59.418;17.962;2023-03-20T10:43:59;100437.22;;;6.63;90.54
70833;BME280;58452;59.418;17.962;2023-03-20T10:46:29;100437.88;;;6.45;91.99
70833;BME280;58452;59.418;17.962;2023-03-20T10:49:03;100442.19;;;6.44;93.03
70833;BME280;58452;59.418;17.962;2023-03-20T10:51:40;100438.84;;;6.32;92.93
70833;BME280;58452;59.418;17.962;2023-03-20T10:54:25;100433.63;;;6.23;93.80
70833;BME280;58452;59.418;17.962;2023-03-20T10:56:54;100434.78;;;6.30;93.75
70833;BME280;58452;59.418;17.962;2023-03-20T10:59:39;100425.16;;;6.43;93.74
70833;BME280;58452;59.418;17.962;2023-03-20T11:02:12;100421.16;;;6.50;94.03
70833;BME280;58452;59.418;17.962;2023-03-20T11:04:38;100416.44;;;6.46;94.34
70833;BME280;58452;59.418;17.962;2023-03-20T11:10:09;100414.81;;;6.45;94.13
70833;BME280;58452;59.418;17.962;2023-03-20T11:15:20;100403.38;;;6.69;94.40
70833;BME280;58452;59.418;17.962;2023-03-20T11:20:17;100404.69;;;6.64;93.99
70833;BME280;58452;59.418;17.962;2023-03-20T11:22:43;100395.94;;;6.66;94.38
70833;BME280;58452;59.418;17.962;2023-03-20T11:25:27;100395.97;;;6.76;94.23
70833;BME280;58452;59.418;17.962;2023-03-20T11:27:54;100393.56;;;6.74;93.70
70833;BME280;58452;59.418;17.962;2023-03-20T11:30:20;100401.63;;;6.70;94.32
70833;BME280;58452;59.418;17.962;2023-03-20T11:32:49;100396.94;;;6.75;94.32
70833;BME280;58452;59.418;17.962;2023-03-20T11:37:52;100391.16;;;6.82;94.15
70833;BME280;58452;59.418;17.962;2023-03-20T11:40:23;100391.78;;;6.96;93.92
70833;BME280;58452;59.418;17.962;2023-03-20T11:45:20;100378.59;;;7.00;94.28
70833;BME280;58452;59.418;17.962;2023-03-20T11:47:50;100379.69;;;7.07;94.18
70833;BME280;58452;59.418;17.962;2023-03-20T11:50:35;100378.63;;;7.10;93.44
70833;BME280;58452;59.418;17.962;2023-03-20T11:53:03;100377.50;;;7.03;93.65
70833;BME280;58452;59.418;17.962;2023-03-20T11:55:33;100378.25;;;6.94;94.19
70833;BME280;58452;59.418;17.962;2023-03-20T11:58:04;100386.41;;;6.99;93.97
70833;BME280;58452;59.418;17.962;2023-03-20T12:00:38;100378.88;;;7.07;93.17
70833;BME280;58452;59.418;17.962;2023-03-20T12:05:59;100373.50;;;7.10;93.03
70833;BME280;58452;59.418;17.962;2023-03-20T12:08:26;100371.38;;;7.15;93.27
70833;BME280;58452;59.418;17.962;2023-03-20T12:11:00;100362.47;;;7.19;93.51
70833;BME280;58452;59.418;17.962;2023-03-20T12:13:34;100362.72;;;7.16;94.09
70833;BME280;58452;59.418;17.962;2023-03-20T12:16:11;100362.78;;;7.35;94.29
70833;BME280;58452;59.418;17.962;2023-03-20T12:18:44;100352.84;;;7.51;93.93
70833;BME280;58452;59.418;17.962;2023-03-20T12:21:22;100346.06;;;7.50;93.59
70833;BME280;58452;59.418;17.962;2023-03-20T12:27:27;100356.13;;;7.72;93.85
70833;BME280;58452;59.418;17.962;2023-03-20T12:30:55;100354.38;;;7.82;93.63
70833;BME280;58452;59.418;17.962;2023-03-20T12:33:11;100350.59;;;7.77;92.93
70833;BME280;58452;59.418;17.962;2023-03-20T12:35:45;100348.59;;;7.80;92.48
70833;BME280;58452;59.418;17.962;2023-03-20T12:38:32;100354.00;;;7.87;92.36
70833;BME280;58452;59.418;17.962;2023-03-20T12:52:27;100370.41;;;6.85;98.60
70833;BME280;58452;59.418;17.962;2023-03-20T12:57:45;100371.03;;;6.57;99.20
70833;BME280;58452;59.418;17.962;2023-03-20T13:00:32;100373.09;;;6.63;99.76
70833;BME280;58452;59.418;17.962;2023-03-20T13:13:55;100375.69;;;6.63;99.06
70833;BME280;58452;59.418;17.962;2023-03-20T13:16:34;100374.78;;;6.53;98.66
70833;BME280;58452;59.418;17.962;2023-03-20T13:19:14;100374.09;;;6.51;98.80
70833;BME280;58452;59.418;17.962;2023-03-20T13:27:20;100369.69;;;6.42;99.36
70833;BME280;58452;59.418;17.962;2023-03-20T13:38:08;100384.44;;;6.29;99.45
70833;BME280;58452;59.418;17.962;2023-03-20T13:40:41;100399.81;;;6.29;99.89
70833;BME280;58452;59.418;17.962;2023-03-20T13:43:30;100404.28;;;6.27;98.96
70833;BME280;58452;59.418;17.962;2023-03-20T13:46:06;100403.59;;;6.14;97.05
70833;BME280;58452;59.418;17.962;2023-03-20T13:48:37;100407.34;;;6.10;96.63
70833;BME280;58452;59.418;17.962;2023-03-20T13:53:50;100412.72;;;6.07;95.28
70833;BME280;58452;59.418;17.962;2023-03-20T13:59:29;100416.31;;;6.15;93.85
70833;BME280;58452;59.418;17.962;2023-03-20T14:02:22;100417.84;;;5.96;92.19
70833;BME280;58452;59.418;17.962;2023-03-20T14:05:00;100428.69;;;5.99;91.96
70833;BME280;58452;59.418;17.962;2023-03-20T14:07:38;100429.03;;;5.72;91.66
70833;BME280;58452;59.418;17.962;2023-03-20T14:12:47;100438.81;;;5.56;90.74
70833;BME280;58452;59.418;17.962;2023-03-20T14:15:13;100446.25;;;5.37;90.33
70833;BME280;58452;59.418;17.962;2023-03-20T14:17:43;100444.19;;;5.31;90.56
70833;BME280;58452;59.418;17.962;2023-03-20T14:20:21;100447.19;;;5.36;91.71
70833;BME280;58452;59.418;17.962;2023-03-20T14:22:50;100455.09;;;5.44;90.71
70833;BME280;58452;59.418;17.962;2023-03-20T14:25:18;100455.09;;;5.22;90.74
70833;BME280;58452;59.418;17.962;2023-03-20T14:35:52;100468.19;;;4.95;91.79
70833;BME280;58452;59.418;17.962;2023-03-20T14:39:10;100461.06;;;4.87;90.76
70833;BME280;58452;59.418;17.962;2023-03-20T14:49:45;100485.81;;;4.87;91.02
70833;BME280;58452;59.418;17.962;2023-03-20T14:54:51;100481.06;;;4.93;90.55
70833;BME280;58452;59.418;17.962;2023-03-20T14:57:28;100471.72;;;4.81;89.60
70833;BME280;58452;59.418;17.962;2023-03-20T14:59:54;100473.19;;;4.62;90.08
70833;BME280;58452;59.418;17.962;2023-03-20T15:02:28;100479.00;;;4.64;89.32
70833;BME280;58452;59.418;17.962;2023-03-20T15:04:54;100490.66;;;4.55;89.00
70833;BME280;58452;59.418;17.962;2023-03-20T15:07:25;100495.25;;;4.39;90.40
70833;BME280;58452;59.418;17.962;2023-03-20T15:09:54;100503.22;;;4.11;90.41
70833;BME280;58452;59.418;17.962;2023-03-20T15:12:25;100500.00;;;4.20;90.41
70833;BME280;58452;59.418;17.962;2023-03-20T15:14:55;100513.28;;;4.25;89.97
70833;BME280;58452;59.418;17.962;2023-03-20T15:19:49;100521.22;;;4.33;88.66
70833;BME280;58452;59.418;17.962;2023-03-20T15:22:17;100520.66;;;4.17;88.48
70833;BME280;58452;59.418;17.962;2023-03-20T15:24:54;100526.47;;;4.19;88.95
70833;BME280;58452;59.418;17.962;2023-03-20T15:27:20;100520.78;;;4.03;87.31
70833;BME280;58452;59.418;17.962;2023-03-20T15:29:50;100529.06;;;3.93;87.04
70833;BME280;58452;59.418;17.962;2023-03-20T15:32:16;100527.84;;;3.86;86.42
70833;BME280;58452;59.418;17.962;2023-03-20T15:34:42;100533.78;;;3.87;86.35
70833;BME280;58452;59.418;17.962;2023-03-20T15:37:14;100535.59;;;3.98;85.79
70833;BME280;58452;59.418;17.962;2023-03-20T15:39:49;100537.69;;;3.92;85.72